Time;durP1;ratioP1;P1;durP2;ratioP2;P2;SDS_P1;SDS_P2;PMS_P1;PMS_P2;Temp;Humidity;BMP_temperature;BMP_pressure;BME280_temperature;BME280_humidity;BME280_pressure;Samples;Min_cycle;Max_cycle;Signal;HPM_P1;HPM_P2
2022/11/21 00:01:43;;;;;;;7.90;5.43;;;;;;;11.45;71.02;93642.97;5024146;28;20034;-67
2022/11/21 00:04:09;;;;;;;6.90;4.88;;;;;;;11.50;70.86;93639.56;4992007;28;20018;-69
2022/11/21 00:06:34;;;;;;;7.38;5.47;;;;;;;11.59;71.06;93666.25;5028808;28;20025;-68
2022/11/21 00:09:00;;;;;;;8.38;5.45;;;;;;;11.63;70.50;93639.28;5029999;28;20037;-68
2022/11/21 00:11:25;;;;;;;8.13;4.78;;;;;;;11.67;70.55;93646.13;5029706;28;20103;-68
2022/11/21 00:13:51;;;;;;;6.70;5.15;;;;;;;11.73;70.46;93648.22;5027146;28;20480;-68
2022/11/21 00:16:16;;;;;;;6.50;4.68;;;;;;;11.73;70.29;93643.47;5030350;28;20491;-68
2022/11/21 00:18:42;;;;;;;8.20;4.80;;;;;;;11.80;69.95;93634.81;5029682;28;20455;-67
2022/11/21 00:21:15;;;;;;;7.53;5.20;;;;;;;11.84;69.82;93624.41;5030146;28;20033;-67
2022/11/21 00:23:44;;;;;;;7.97;5.60;;;;;;;11.80;70.14;93632.06;5029706;28;20108;-68
2022/11/21 00:26:10;;;;;;;7.68;5.53;;;;;;;11.82;70.32;93640.66;5030490;28;20039;-67
2022/11/21 00:28:35;;;;;;;7.90;5.60;;;;;;;11.85;70.25;93645.19;5029874;28;20029;-68
2022/11/21 00:31:01;;;;;;;6.80;5.40;;;;;;;11.91;69.61;93639.78;5029816;28;20025;-68
2022/11/21 00:33:26;;;;;;;8.90;6.20;;;;;;;11.89;69.88;93636.75;5029788;28;20021;-69
2022/11/21 00:35:52;;;;;;;9.65;6.93;;;;;;;11.82;70.08;93629.63;5029534;28;20032;-67
2022/11/21 00:38:17;;;;;;;11.15;7.13;;;;;;;11.79;70.10;93616.78;5029786;28;20511;-70
2022/11/21 00:40:43;;;;;;;12.55;7.57;;;;;;;11.80;69.84;93607.28;5029194;28;20506;-68
2022/11/21 00:43:08;;;;;;;9.57;7.97;;;;;;;11.78;69.88;93582.22;5030106;28;20021;-68
2022/11/21 00:45:34;;;;;;;12.40;7.85;;;;;;;11.67;70.14;93595.81;5029013;28;20033;-68
2022/11/21 00:47:59;;;;;;;9.52;7.30;;;;;;;11.71;69.84;93601.91;5029482;28;20052;-69
2022/11/21 00:50:25;;;;;;;8.18;5.32;;;;;;;11.65;69.57;93581.78;5029242;28;20033;-69
2022/11/21 00:52:59;;;;;;;5.85;3.30;;;;;;;11.60;69.35;93565.94;5029240;28;20036;-68
2022/11/21 00:55:25;;;;;;;7.13;5.30;;;;;;;11.63;69.97;93581.47;5029781;28;20018;-68
2022/11/21 00:57:50;;;;;;;8.52;5.55;;;;;;;11.67;69.75;93591.06;5029284;28;20376;-69
2022/11/21 01:00:16;;;;;;;8.43;5.70;;;;;;;11.58;70.11;93593.16;5029860;28;20479;-68
2022/11/21 01:02:42;;;;;;;9.73;6.05;;;;;;;11.62;70.12;93608.25;5028651;28;20392;-68
2022/11/21 01:05:08;;;;;;;11.18;7.57;;;;;;;11.51;70.15;93583.28;5029584;28;20092;-68
2022/11/21 01:07:33;;;;;;;10.13;7.60;;;;;;;11.57;70.06;93589.66;5029030;28;20553;-68
2022/11/21 01:09:58;;;;;;;8.60;6.65;;;;;;;11.53;70.11;93571.84;5028838;28;20522;-68
2022/11/21 01:12:24;;;;;;;7.95;6.80;;;;;;;11.52;70.31;93571.03;5028971;28;20021;-67
2022/11/21 01:14:49;;;;;;;11.05;7.82;;;;;;;11.51;70.00;93560.53;5028355;28;20034;-67
2022/11/21 01:17:15;;;;;;;8.82;7.22;;;;;;;11.51;70.18;93566.78;5029068;28;20029;-67
2022/11/21 01:19:40;;;;;;;10.10;7.57;;;;;;;11.49;69.97;93585.03;5028348;28;20033;-68
2022/11/21 01:22:06;;;;;;;9.00;7.18;;;;;;;11.52;69.90;93584.06;5029346;28;20060;-68
2022/11/21 01:24:31;;;;;;;9.57;7.30;;;;;;;11.50;69.82;93576.28;5028753;28;20029;-69
2022/11/21 01:26:56;;;;;;;10.05;8.10;;;;;;;11.42;70.09;93578.66;5028839;28;20025;-68
2022/11/21 01:29:22;;;;;;;9.98;7.72;;;;;;;11.47;70.07;93592.97;5029376;28;20025;-69
2022/11/21 01:31:48;;;;;;;9.82;7.15;;;;;;;11.38;70.26;93583.59;5028831;28;20029;-68
2022/11/21 01:34:14;;;;;;;10.75;8.07;;;;;;;11.33;70.53;93589.75;5028526;28;20061;-69
2022/11/21 01:36:39;;;;;;;9.32;7.00;;;;;;;11.43;70.21;93587.69;5028543;28;20022;-68
2022/11/21 01:39:05;;;;;;;11.13;8.02;;;;;;;11.46;70.33;93578.44;5028806;28;20043;-67
2022/11/21 01:41:41;;;;;;;9.52;7.47;;;;;;;11.35;70.68;93573.53;5028043;28;20103;-68
2022/11/21 01:44:25;;;;;;;8.88;6.45;;;;;;;11.41;70.62;93551.59;5028638;28;20040;-67
2022/11/21 01:46:51;;;;;;;9.18;6.97;;;;;;;11.41;70.53;93548.84;5027960;28;20495;-67
2022/11/21 01:49:23;;;;;;;12.25;7.65;;;;;;;11.40;70.64;93550.84;5028135;28;20072;-69
2022/11/21 01:52:03;;;;;;;8.73;6.95;;;;;;;11.36;70.95;93550.31;5028062;28;20025;-68
2022/11/21 01:54:40;;;;;;;10.73;7.63;;;;;;;11.30;71.20;93551.44;5027992;28;20032;-68
2022/11/21 01:57:12;;;;;;;11.90;7.30;;;;;;;11.37;71.18;93548.31;5028401;28;20182;-68
2022/11/21 01:59:41;;;;;;;8.93;7.07;;;;;;;11.24;71.71;93548.59;5028255;28;20029;-68
2022/11/21 02:02:07;;;;;;;7.88;6.95;;;;;;;11.36;71.56;93541.28;5010507;28;20029;-69
2022/11/21 02:04:33;;;;;;;9.38;7.30;;;;;;;11.38;71.15;93547.81;5010501;28;20087;-68
2022/11/21 02:06:58;;;;;;;9.30;6.70;;;;;;;11.48;70.85;93562.25;5009821;28;20033;-69
2022/11/21 02:09:24;;;;;;;10.57;7.38;;;;;;;11.51;70.82;93555.03;5028408;28;20025;-68
2022/11/21 02:12:07;;;;;;;8.20;6.78;;;;;;;11.56;70.60;93557.09;5009742;28;20021;-68
2022/11/21 02:14:33;;;;;;;10.50;7.38;;;;;;;11.61;70.53;93554.44;5010459;28;20063;-69
2022/11/21 02:17:00;;;;;;;8.48;7.15;;;;;;;11.59;70.44;93553.41;4993525;28;20025;-68
2022/11/21 02:19:30;;;;;;;10.23;7.75;;;;;;;11.62;70.26;93560.69;4993725;28;20087;-68
2022/11/21 02:22:03;;;;;;;7.55;5.97;;;;;;;11.63;70.31;93559.47;4993853;28;20079;-69
2022/11/21 02:24:45;;;;;;;8.07;6.50;;;;;;;11.67;70.00;93551.78;5009836;28;20487;-68
2022/11/21 02:27:11;;;;;;;8.50;6.63;;;;;;;11.64;70.06;93545.25;5026933;28;20450;-68
2022/11/21 02:29:38;;;;;;;8.85;6.05;;;;;;;11.63;70.19;93540.94;5027345;28;20036;-68
2022/11/21 02:32:04;;;;;;;8.52;6.22;;;;;;;11.57;70.17;93536.59;5027412;28;20044;-68
2022/11/21 02:34:30;;;;;;;9.75;6.07;;;;;;;11.58;70.38;93540.88;5027820;28;20033;-71
2022/11/21 02:36:55;;;;;;;9.13;5.68;;;;;;;11.61;69.98;93556.44;5027632;28;20029;-68
2022/11/21 02:39:34;;;;;;;8.23;5.80;;;;;;;11.60;70.08;93561.19;5027445;28;20172;-68
2022/11/21 02:42:04;;;;;;;9.00;6.00;;;;;;;11.51;70.63;93549.50;5026963;28;20056;-68
2022/11/21 02:44:34;;;;;;;8.63;6.43;;;;;;;11.56;70.63;93538.59;5027778;28;20048;-68
2022/11/21 02:46:59;;;;;;;8.18;6.38;;;;;;;11.58;70.64;93549.88;4992870;28;20033;-69
2022/11/21 02:49:37;;;;;;;9.43;5.53;;;;;;;11.48;70.63;93553.25;5027444;28;20095;-68
2022/11/21 02:52:02;;;;;;;8.80;5.50;;;;;;;11.62;70.02;93522.16;5009800;28;20041;-68
2022/11/21 02:54:28;;;;;;;8.43;5.80;;;;;;;11.60;70.25;93516.41;5027388;28;20052;-68
2022/11/21 02:56:54;;;;;;;6.88;5.10;;;;;;;11.66;70.08;93500.72;5027681;28;20026;-68
2022/11/21 02:59:19;;;;;;;8.63;6.00;;;;;;;11.60;70.50;93525.41;5026843;28;20056;-68
2022/11/21 03:01:45;;;;;;;8.63;5.70;;;;;;;11.68;70.07;93521.00;5027461;28;20041;-68
2022/11/21 03:04:10;;;;;;;7.85;5.35;;;;;;;11.65;69.93;93510.97;5026563;28;20022;-68
2022/11/21 03:06:36;;;;;;;6.15;4.15;;;;;;;11.68;69.86;93495.47;5027099;28;20033;-68
2022/11/21 03:09:01;;;;;;;7.30;5.05;;;;;;;11.66;70.10;93506.22;5027062;28;20022;-67
2022/11/21 03:11:26;;;;;;;8.77;5.40;;;;;;;11.75;69.94;93508.09;5026699;28;20044;-67
2022/11/21 03:13:52;;;;;;;6.35;4.78;;;;;;;11.77;70.07;93500.88;5027007;28;20404;-67
2022/11/21 03:16:17;;;;;;;9.00;4.85;;;;;;;11.69;69.95;93494.25;5026448;28;20566;-68
2022/11/21 03:18:43;;;;;;;6.85;4.95;;;;;;;11.69;69.71;93491.50;5027244;28;20032;-68
2022/11/21 03:21:08;;;;;;;8.10;4.57;;;;;;;11.74;69.44;93496.31;5026436;28;20029;-67
2022/11/21 03:23:34;;;;;;;7.63;4.57;;;;;;;11.76;69.45;93502.13;5027392;28;20407;-67
2022/11/21 03:25:59;;;;;;;8.30;3.60;;;;;;;11.84;68.83;93508.00;5027026;28;20025;-67
2022/11/21 03:28:24;;;;;;;4.53;2.53;;;;;;;11.87;68.65;93507.03;5026980;28;20025;-68
2022/11/21 03:30:50;;;;;;;6.38;2.38;;;;;;;11.88;68.88;93506.56;5026985;28;20029;-68
2022/11/21 03:33:15;;;;;;;5.72;2.50;;;;;;;11.94;69.22;93504.66;5026733;28;20029;-68
2022/11/21 03:35:41;;;;;;;9.00;2.80;;;;;;;11.93;69.60;93489.38;5027358;28;20025;-68
2022/11/21 03:38:06;;;;;;;5.13;3.03;;;;;;;11.91;69.39;93511.09;5027717;28;20542;-68
2022/11/21 03:40:32;;;;;;;10.98;3.55;;;;;;;11.88;69.53;93503.81;5031176;28;20025;-69
2022/11/21 03:43:03;;;;;;;7.20;3.28;;;;;;;11.90;69.70;93504.09;4996603;28;20403;-68
2022/11/21 03:45:28;;;;;;;6.43;3.35;;;;;;;11.82;69.90;93486.47;5030639;28;20087;-68
2022/11/21 03:47:53;;;;;;;6.78;4.07;;;;;;;11.84;69.79;93497.00;5030414;28;20041;-67
2022/11/21 03:50:20;;;;;;;5.53;3.53;;;;;;;11.80;69.49;93512.91;5030235;28;20160;-68
2022/11/21 03:52:45;;;;;;;6.03;2.70;;;;;;;11.88;68.00;93483.78;5030680;28;20017;-68
2022/11/21 03:55:11;;;;;;;7.57;2.63;;;;;;;11.95;67.39;93481.38;5030481;28;20466;-70
2022/11/21 03:57:38;;;;;;;9.02;3.60;;;;;;;12.01;67.87;93489.72;5030525;28;20037;-67
2022/11/21 04:00:03;;;;;;;6.65;3.00;;;;;;;12.04;68.07;93483.22;5029928;28;20070;-69
2022/11/21 04:02:29;;;;;;;3.92;2.58;;;;;;;12.15;67.81;93488.88;5030735;28;20109;-68
2022/11/21 04:04:54;;;;;;;5.53;2.40;;;;;;;12.22;67.57;93469.22;5029991;28;20040;-67
2022/11/21 04:07:20;;;;;;;3.47;2.00;;;;;;;12.25;65.30;93467.47;5030391;28;20079;-67
2022/11/21 04:09:45;;;;;;;8.63;2.65;;;;;;;12.32;65.55;93477.31;5030036;28;20055;-67
2022/11/21 04:12:10;;;;;;;4.75;2.50;;;;;;;12.45;66.02;93480.50;5030536;28;20029;-69
2022/11/21 04:14:36;;;;;;;6.78;2.60;;;;;;;12.39;64.79;93463.88;5030238;28;20415;-68
2022/11/21 04:17:01;;;;;;;6.45;2.10;;;;;;;12.45;63.72;93481.25;5030241;28;20394;-68
2022/11/21 04:19:27;;;;;;;6.00;1.60;;;;;;;12.53;63.86;93484.31;5030816;28;20026;-68
2022/11/21 04:21:52;;;;;;;5.93;2.38;;;;;;;12.55;64.24;93479.06;5030031;28;20038;-69
2022/11/21 04:24:18;;;;;;;4.55;2.30;;;;;;;12.65;64.12;93483.19;5030079;28;20018;-67
2022/11/21 04:26:43;;;;;;;4.68;2.08;;;;;;;12.65;63.00;93480.44;5030104;28;20044;-68
2022/11/21 04:29:09;;;;;;;9.75;2.15;;;;;;;12.66;63.10;93475.69;5029795;28;20022;-69
2022/11/21 04:31:34;;;;;;;6.63;1.35;;;;;;;12.73;61.82;93476.03;5029350;28;20026;-69
2022/11/21 04:34:00;;;;;;;5.68;1.45;;;;;;;12.82;61.95;93491.66;5029499;28;20025;-66
2022/11/21 04:36:25;;;;;;;5.72;1.52;;;;;;;12.91;61.63;93480.47;5029900;28;20100;-69
2022/11/21 04:38:50;;;;;;;5.78;1.25;;;;;;;12.90;60.15;93497.47;5029207;28;20029;-68
2022/11/21 04:41:16;;;;;;;5.55;1.15;;;;;;;13.03;60.18;93498.63;5030252;28;20030;-68
2022/11/21 04:43:41;;;;;;;7.70;2.10;;;;;;;13.09;60.33;93500.69;5029165;28;20029;-70
2022/11/21 04:46:07;;;;;;;4.68;1.50;;;;;;;13.19;60.17;93507.53;5029945;28;20037;-69
2022/11/21 04:48:32;;;;;;;7.05;1.38;;;;;;;13.25;59.86;93500.88;5029278;28;20045;-69
2022/11/21 04:50:58;;;;;;;8.77;2.10;;;;;;;13.29;60.40;93506.91;5028450;28;20037;-67
2022/11/21 04:53:23;;;;;;;5.13;1.80;;;;;;;13.35;60.51;93504.19;5029570;28;20033;-69
2022/11/21 04:55:48;;;;;;;9.95;1.88;;;;;;;13.34;60.24;93504.69;5028855;28;20462;-75
2022/11/21 04:58:14;;;;;;;8.90;1.67;;;;;;;13.26;60.20;93513.41;5029935;28;20393;-68
2022/11/21 05:00:39;;;;;;;8.88;1.92;;;;;;;13.27;60.19;93514.19;5028726;28;20409;-69
2022/11/21 05:03:05;;;;;;;3.53;1.33;;;;;;;13.23;59.93;93519.91;5029630;28;20479;-69
2022/11/21 05:05:31;;;;;;;2.70;1.30;;;;;;;13.18;60.08;93520.56;5011102;28;20546;-69
2022/11/21 05:07:56;;;;;;;2.55;0.80;;;;;;;12.96;59.22;93517.59;5029273;28;20653;-69
2022/11/21 05:10:21;;;;;;;2.17;1.33;;;;;;;12.85;59.80;93534.81;5028828;28;20032;-68
2022/11/21 05:15:30;;;;;;;;;;;;;;;12.30;59.99;93551.44;5030050;28;20032;-68
2022/11/21 05:17:58;;;;;;;2.03;1.13;;;;;;;11.85;60.58;93554.31;5028965;28;20252;-68
2022/11/21 05:20:24;;;;;;;3.83;1.50;;;;;;;11.49;61.35;93555.50;5029421;28;20045;-68
2022/11/21 05:22:52;;;;;;;1.73;0.90;;;;;;;11.18;62.01;93569.72;5028533;28;20550;-69
2022/11/21 05:25:17;;;;;;;2.03;1.27;;;;;;;10.92;62.14;93566.78;5028992;28;20029;-69
2022/11/21 05:27:43;;;;;;;2.05;0.90;;;;;;;10.44;63.01;93586.09;5028852;28;20063;-68
2022/11/21 05:30:10;;;;;;;1.83;0.77;;;;;;;10.40;63.12;93580.00;5028847;28;20033;-70
2022/11/21 05:32:35;;;;;;;2.05;0.80;;;;;;;10.13;63.53;93594.63;5028741;28;20334;-69
2022/11/21 05:35:00;;;;;;;1.33;0.73;;;;;;;9.84;64.64;93606.22;5029508;28;20037;-69
2022/11/21 05:37:26;;;;;;;1.85;1.10;;;;;;;9.62;64.83;93611.16;5034886;28;20017;-68
2022/11/21 05:39:52;;;;;;;3.25;1.20;;;;;;;9.43;65.58;93621.44;5029637;28;20029;-67
2022/11/21 05:43:44;;;;;;;1.85;0.90;;;;;;;9.27;65.58;93612.31;5028554;28;20109;-69
2022/11/21 05:45:02;;;;;;;1.73;1.00;;;;;;;9.12;66.13;93618.91;5028283;28;20125;-69
2022/11/21 05:47:28;;;;;;;1.38;0.60;;;;;;;8.96;66.57;93622.75;5028067;28;20300;-68
2022/11/21 05:49:53;;;;;;;1.17;0.73;;;;;;;8.87;66.72;93636.44;5028369;28;20029;-71
2022/11/21 05:52:19;;;;;;;1.85;0.80;;;;;;;8.79;66.85;93633.25;5010269;28;20030;-69
2022/11/21 05:54:44;;;;;;;1.35;0.60;;;;;;;8.83;66.82;93633.88;5028754;28;20156;-68
2022/11/21 05:57:10;;;;;;;1.08;0.70;;;;;;;8.74;66.99;93648.31;5027883;28;20072;-68
2022/11/21 05:59:35;;;;;;;1.27;0.82;;;;;;;8.70;66.71;93669.59;5028293;28;20022;-69
2022/11/21 06:04:44;;;;;;;0.68;0.50;;;;;;;8.48;66.75;93666.22;5027882;28;20040;-68
2022/11/21 06:07:10;;;;;;;1.63;0.98;;;;;;;8.51;66.57;93665.34;5028203;28;20034;-69
2022/11/21 06:09:35;;;;;;;1.45;0.90;;;;;;;8.31;66.84;93675.91;5027670;28;20062;-69
2022/11/21 06:12:01;;;;;;;2.00;1.00;;;;;;;8.17;67.42;93661.56;5028029;28;20372;-70
2022/11/21 06:14:26;;;;;;;2.13;0.70;;;;;;;8.12;67.33;93677.81;5027624;28;20030;-69
2022/11/21 06:16:52;;;;;;;1.45;0.70;;;;;;;7.87;67.85;93673.34;5028079;28;20025;-68
2022/11/21 06:19:17;;;;;;;1.65;0.82;;;;;;;7.89;67.65;93677.13;5027794;28;20032;-68
2022/11/21 06:21:42;;;;;;;0.68;0.50;;;;;;;7.78;67.46;93692.44;5027645;28;20029;-69
2022/11/21 06:24:08;;;;;;;1.23;0.50;;;;;;;7.59;68.09;93683.38;5027644;28;20375;-69
2022/11/21 06:26:34;;;;;;;0.85;0.60;;;;;;;7.51;68.01;93696.53;5027425;28;20056;-69
2022/11/21 06:28:59;;;;;;;0.70;0.40;;;;;;;7.45;67.95;93693.63;5027852;28;20022;-68
2022/11/21 06:31:25;;;;;;;1.83;0.75;;;;;;;7.41;68.30;93700.44;5027190;28;20029;-68
2022/11/21 06:33:52;;;;;;;0.70;0.50;;;;;;;7.37;68.33;93705.25;5027795;28;20024;-69
2022/11/21 06:36:18;;;;;;;0.98;0.50;;;;;;;7.40;68.37;93707.13;4993523;28;20032;-67
2022/11/21 06:38:43;;;;;;;0.70;0.45;;;;;;;7.39;68.25;93725.47;5027483;28;20029;-69
2022/11/21 06:41:20;;;;;;;0.85;0.50;;;;;;;7.23;69.34;93714.75;5027022;28;20025;-69
2022/11/21 06:43:45;;;;;;;1.95;1.10;;;;;;;7.21;69.85;93730.81;5027519;28;20033;-69
2022/11/21 06:46:11;;;;;;;1.63;0.90;;;;;;;7.16;69.82;93723.94;5027503;28;20423;-69
2022/11/21 06:48:36;;;;;;;0.82;0.63;;;;;;;7.09;70.07;93745.28;5026978;28;20116;-68
2022/11/21 06:51:18;;;;;;;2.30;1.20;;;;;;;7.10;70.61;93738.63;5009787;28;20423;-68
2022/11/21 06:53:43;;;;;;;1.67;1.00;;;;;;;7.00;71.19;93770.59;5027181;28;20435;-68
2022/11/21 06:56:08;;;;;;;2.33;1.13;;;;;;;6.97;71.41;93782.38;5026817;28;20030;-70
2022/11/21 06:58:34;;;;;;;1.13;0.90;;;;;;;6.84;71.40;93801.53;5028279;28;20029;-70
2022/11/21 07:01:09;;;;;;;2.85;0.80;;;;;;;6.70;71.29;93779.38;5027165;28;20028;-69
2022/11/21 07:03:34;;;;;;;1.30;0.77;;;;;;;6.56;72.23;93794.25;5027626;28;20074;-68
2022/11/21 07:06:00;;;;;;;2.40;1.25;;;;;;;6.43;72.48;93807.16;5026571;28;20026;-69
2022/11/21 07:08:27;;;;;;;2.47;1.50;;;;;;;6.37;72.81;93812.41;5027368;28;20466;-69
2022/11/21 07:10:52;;;;;;;3.15;1.65;;;;;;;6.24;73.29;93801.47;5026619;28;20038;-68
2022/11/21 07:13:21;;;;;;;2.42;1.10;;;;;;;6.18;73.69;93818.81;5026801;28;20033;-69
2022/11/21 07:15:59;;;;;;;2.80;1.27;;;;;;;6.13;74.00;93839.22;5026909;28;20048;-69
2022/11/21 07:18:25;;;;;;;2.40;1.60;;;;;;;6.31;74.00;93855.09;5027265;28;20034;-69
2022/11/21 07:20:50;;;;;;;2.17;1.35;;;;;;;6.30;73.83;93853.53;5027189;28;20420;-70
2022/11/21 07:23:16;;;;;;;2.47;1.48;;;;;;;6.35;73.72;93855.72;5026399;28;20384;-68
2022/11/21 07:25:41;;;;;;;1.40;0.95;;;;;;;6.30;72.58;93859.00;5027360;28;20439;-67
2022/11/21 07:28:07;;;;;;;1.42;0.90;;;;;;;6.34;72.38;93857.69;5026460;28;20029;-67
2022/11/21 07:30:33;;;;;;;2.63;0.90;;;;;;;6.22;72.21;93858.47;5026926;28;20076;-68
2022/11/21 07:33:00;;;;;;;3.28;1.40;;;;;;;6.16;72.87;93857.47;5026513;28;20128;-68
2022/11/21 07:35:26;;;;;;;1.88;1.15;;;;;;;6.15;72.67;93866.09;5026692;28;20083;-68
2022/11/21 07:37:51;;;;;;;3.72;1.48;;;;;;;6.21;73.06;93886.94;5027361;28;20025;-68
2022/11/21 07:40:17;;;;;;;3.60;1.40;;;;;;;6.27;73.00;93890.66;5026401;28;20033;-68
2022/11/21 07:42:42;;;;;;;2.60;1.30;;;;;;;6.29;72.85;93888.25;5027484;28;20531;-69
2022/11/21 07:45:08;;;;;;;2.13;1.38;;;;;;;6.41;72.20;93892.22;5026464;28;20021;-68
2022/11/21 07:47:34;;;;;;;3.78;2.03;;;;;;;6.50;72.37;93897.81;5026923;28;20045;-68
2022/11/21 07:49:59;;;;;;;2.72;1.60;;;;;;;6.47;71.81;93911.53;5026846;28;20446;-69
2022/11/21 07:52:25;;;;;;;4.65;1.58;;;;;;;6.45;71.55;93900.31;5008767;28;20483;-68
2022/11/21 07:54:50;;;;;;;3.10;1.40;;;;;;;6.44;71.14;93898.78;5026783;28;20530;-69
2022/11/21 07:57:16;;;;;;;1.70;1.23;;;;;;;6.42;70.75;93901.91;5026353;28;20064;-69
2022/11/21 07:59:41;;;;;;;3.08;1.20;;;;;;;6.51;70.75;93912.97;5027046;28;20026;-68
2022/11/21 08:02:11;;;;;;;3.58;1.35;;;;;;;6.59;70.81;93911.56;5026808;28;20017;-69
2022/11/21 08:04:36;;;;;;;1.42;0.77;;;;;;;6.63;70.21;93916.91;5028144;28;20095;-67
2022/11/21 08:07:02;;;;;;;1.20;0.90;;;;;;;6.59;70.22;93916.25;5027463;28;20487;-68
2022/11/21 08:09:28;;;;;;;1.88;0.90;;;;;;;6.67;70.47;93927.75;5029597;28;20032;-67
2022/11/21 08:11:53;;;;;;;1.98;1.08;;;;;;;6.86;69.93;93926.75;5026972;28;20021;-68
2022/11/21 08:14:19;;;;;;;5.70;2.20;;;;;;;7.04;68.87;93934.41;5026565;28;20025;-69
2022/11/21 08:16:44;;;;;;;7.43;1.88;;;;;;;7.11;67.73;93932.25;5008593;28;20328;-69
2022/11/21 08:19:09;;;;;;;3.40;2.03;;;;;;;7.06;67.76;93940.97;5026251;28;20021;-68
2022/11/21 08:21:35;;;;;;;2.90;1.58;;;;;;;7.07;66.89;93964.38;5026985;28;20495;-68
2022/11/21 08:24:00;;;;;;;2.97;1.40;;;;;;;7.09;67.29;93963.94;5026001;28;20407;-68
2022/11/21 08:26:26;;;;;;;4.25;1.98;;;;;;;7.11;67.33;93962.31;5029357;28;20481;-67
2022/11/21 08:28:51;;;;;;;4.15;1.92;;;;;;;7.21;67.04;93971.34;5029840;28;20033;-68
2022/11/21 08:31:17;;;;;;;3.10;1.00;;;;;;;7.41;65.99;93979.34;5029979;28;20084;-68
2022/11/21 08:33:42;;;;;;;2.08;1.10;;;;;;;7.64;65.57;93975.47;5029892;28;20021;-67
2022/11/21 08:36:08;;;;;;;2.22;1.00;;;;;;;7.71;64.97;93989.66;5029628;28;20022;-68
2022/11/21 08:38:33;;;;;;;3.35;1.30;;;;;;;7.72;64.21;93984.97;5030085;28;20025;-68
2022/11/21 08:43:43;;;;;;;2.30;1.20;;;;;;;7.72;64.37;93993.94;5030143;28;20037;-68
2022/11/21 08:46:08;;;;;;;7.38;2.03;;;;;;;7.67;64.23;93994.47;5029343;28;20026;-68
2022/11/21 08:48:34;;;;;;;2.22;0.82;;;;;;;7.47;63.90;93990.50;5029210;28;20518;-68
2022/11/21 08:50:59;;;;;;;1.83;0.80;;;;;;;7.42;63.26;93998.03;5029245;28;20521;-69
2022/11/21 08:53:24;;;;;;;1.27;0.77;;;;;;;7.34;63.89;93993.22;5029135;28;20038;-68
2022/11/21 08:55:50;;;;;;;1.02;0.70;;;;;;;7.45;63.72;94002.63;5011988;28;20029;-68
2022/11/21 08:58:15;;;;;;;0.55;0.50;;;;;;;7.49;63.73;94002.50;5029135;28;20032;-69
2022/11/21 09:00:41;;;;;;;2.60;1.27;;;;;;;7.44;63.79;94000.31;5030101;28;20021;-69
2022/11/21 09:03:06;;;;;;;2.15;1.23;;;;;;;7.50;63.92;93998.56;5029412;28;20024;-68
2022/11/21 09:05:32;;;;;;;2.08;0.82;;;;;;;7.59;63.63;93997.91;5029414;28;20022;-67
2022/11/21 09:07:57;;;;;;;6.00;2.13;;;;;;;7.61;63.76;94007.19;5029736;28;20064;-69
2022/11/21 09:10:27;;;;;;;6.38;2.88;;;;;;;7.64;63.84;94006.31;5012176;28;20527;-68
2022/11/21 09:12:53;;;;;;;2.00;1.13;;;;;;;7.63;62.71;94006.78;5011652;28;20424;-68
2022/11/21 09:18:02;;;;;;;;;;;;;;;7.55;64.17;93991.78;5030169;28;20072;-67
2022/11/21 09:20:28;;;;;;;2.22;0.88;;;;;;;7.45;64.87;94004.56;5028862;28;19952;-68
2022/11/21 09:22:53;;;;;;;1.77;1.20;;;;;;;7.44;64.98;94006.56;5029360;28;20537;-67
2022/11/21 09:25:19;;;;;;;0.90;0.80;;;;;;;7.39;64.48;94004.34;5028848;28;20040;-67
2022/11/21 09:27:44;;;;;;;2.65;0.95;;;;;;;7.40;63.40;94016.09;5028516;28;20030;-67
2022/11/21 09:30:10;;;;;;;2.10;0.80;;;;;;;7.37;63.46;94022.41;5029144;28;20504;-67
2022/11/21 09:32:35;;;;;;;2.28;1.00;;;;;;;7.16;63.28;94023.84;5028124;28;20407;-67
2022/11/21 09:35:01;;;;;;;1.90;0.90;;;;;;;7.19;63.28;94020.25;5028312;28;20400;-68
2022/11/21 09:37:27;;;;;;;1.42;1.00;;;;;;;7.27;63.70;94016.06;5027623;28;20053;-68
2022/11/21 09:39:52;;;;;;;3.90;1.75;;;;;;;7.36;63.78;94027.13;5029290;28;20033;-68
2022/11/21 09:42:27;;;;;;;2.88;2.45;;;;;;;7.31;63.81;94021.44;5028685;28;20087;-68
2022/11/21 09:45:02;;;;;;;1.38;1.10;;;;;;;7.24;63.69;94013.47;5028771;28;20033;-68
2022/11/21 09:47:29;;;;;;;2.58;1.50;;;;;;;7.26;64.12;94014.53;5028491;28;20059;-69
2022/11/21 09:50:01;;;;;;;1.92;1.30;;;;;;;7.21;64.56;94019.78;5010414;28;20021;-68
2022/11/21 09:52:39;;;;;;;2.25;1.20;;;;;;;7.16;64.49;94012.91;5011620;28;20048;-68
2022/11/21 09:55:33;;;;;;;3.10;2.28;;;;;;;7.07;65.24;94015.53;5028254;28;20201;-68
2022/11/21 09:58:36;;;;;;;5.50;3.55;;;;;;;7.03;65.91;94023.81;5013082;28;20108;-68
2022/11/21 10:01:02;;;;;;;1.38;1.02;;;;;;;7.02;65.39;94019.56;4961901;28;20041;-68
2022/11/21 10:03:47;;;;;;;2.45;1.42;;;;;;;6.97;65.15;94025.56;5027935;28;20032;-68
2022/11/21 10:06:20;;;;;;;3.28;1.85;;;;;;;6.92;65.66;94026.88;5010558;28;20086;-68
2022/11/21 10:08:45;;;;;;;1.92;1.40;;;;;;;6.88;65.25;94026.22;5027899;28;20029;-68
2022/11/21 10:14:31;;;;;;;8.27;4.47;;;;;;;6.88;65.72;94036.38;5017352;28;20113;-69
2022/11/21 10:17:05;;;;;;;4.35;2.63;;;;;;;6.84;65.51;94030.25;5027952;28;20137;-68
2022/11/21 10:19:56;;;;;;;7.80;4.78;;;;;;;6.93;65.96;94047.53;4994434;28;20029;-68
2022/11/21 10:22:37;;;;;;;9.30;5.15;;;;;;;6.84;65.46;94041.94;4992115;28;20112;-68
2022/11/21 10:25:28;;;;;;;5.25;2.88;;;;;;;6.71;64.96;94038.44;5027449;28;20041;-68
2022/11/21 10:28:28;;;;;;;5.78;2.95;;;;;;;6.69;64.96;94029.88;5012464;28;20439;-68
2022/11/21 10:30:53;;;;;;;6.25;2.63;;;;;;;6.63;65.54;94037.84;4953646;28;20117;-68
2022/11/21 10:33:32;;;;;;;4.50;2.35;;;;;;;6.54;66.08;94039.69;4949977;28;20375;-68
2022/11/21 10:36:00;;;;;;;7.38;3.58;;;;;;;6.61;66.18;94037.53;4966844;28;20090;-68
2022/11/21 10:38:27;;;;;;;4.40;3.38;;;;;;;6.67;66.17;94037.00;4934422;28;20117;-69
2022/11/21 10:41:11;;;;;;;5.30;2.88;;;;;;;6.73;65.48;94038.00;4950280;28;20035;-68
2022/11/21 10:46:39;;;;;;;3.03;2.15;;;;;;;6.73;65.07;94046.19;4965624;28;20045;-68
2022/11/21 10:49:06;;;;;;;2.42;1.90;;;;;;;6.87;65.51;94043.03;4937317;28;20767;-69
2022/11/21 10:51:43;;;;;;;3.28;2.20;;;;;;;6.94;65.56;94048.31;4956837;28;20046;-68
2022/11/21 10:56:57;;;;;;;3.72;2.50;;;;;;;6.83;64.28;94051.34;4952646;28;20033;-70
2022/11/21 10:59:29;;;;;;;3.50;2.50;;;;;;;6.68;64.80;94039.28;4966034;28;20034;-74
2022/11/21 11:02:21;;;;;;;4.22;2.70;;;;;;;6.77;65.55;94039.44;4968442;28;20042;-70
2022/11/21 11:04:47;;;;;;;5.90;3.25;;;;;;;6.76;65.19;94046.06;4967997;28;20129;-68
2022/11/21 11:07:23;;;;;;;5.00;2.90;;;;;;;6.64;65.34;94044.84;4966964;28;20037;-69
2022/11/21 11:09:51;;;;;;;4.97;2.50;;;;;;;6.65;65.46;94046.38;5026896;28;20045;-69
2022/11/21 11:12:23;;;;;;;4.45;2.72;;;;;;;6.60;65.64;94046.91;5026665;28;20021;-76
2022/11/21 11:14:51;;;;;;;5.03;2.80;;;;;;;6.55;65.94;94044.72;5009973;28;20033;-75
2022/11/21 11:17:28;;;;;;;4.43;2.53;;;;;;;6.59;66.20;94050.81;4992864;28;20043;-76
2022/11/21 11:20:05;;;;;;;3.67;2.25;;;;;;;6.65;65.73;94051.84;4978588;28;20033;-69
2022/11/21 11:22:30;;;;;;;3.22;2.50;;;;;;;6.65;65.81;94049.13;5027368;28;20029;-68
2022/11/21 11:24:56;;;;;;;4.30;2.70;;;;;;;6.85;65.70;94048.94;5026434;28;20689;-68
2022/11/21 11:27:28;;;;;;;3.30;1.90;;;;;;;6.72;64.48;94039.97;5027239;28;20022;-75
2022/11/21 11:29:53;;;;;;;3.42;1.80;;;;;;;6.78;64.62;94051.13;5008525;28;20598;-70
2022/11/21 11:32:19;;;;;;;3.42;1.75;;;;;;;6.77;63.76;94044.13;5027419;28;20049;-69
2022/11/21 11:34:58;;;;;;;2.58;1.80;;;;;;;6.67;63.60;94039.72;5026768;28;20380;-69
2022/11/21 11:37:40;;;;;;;4.75;2.25;;;;;;;6.72;63.86;94044.66;5026711;28;20025;-70
2022/11/21 11:40:25;;;;;;;3.65;2.28;;;;;;;6.73;64.43;94040.72;5026928;28;20128;-69
2022/11/21 11:49:02;;;;;;;2.17;1.70;;;;;;;6.66;64.10;94047.16;5011705;28;20112;-69
2022/11/21 11:51:34;;;;;;;3.15;2.38;;;;;;;6.74;63.87;94050.44;5008873;28;20036;-69
2022/11/21 11:54:07;;;;;;;3.42;2.40;;;;;;;6.77;63.59;94047.63;4993438;28;20021;-69
2022/11/21 11:56:35;;;;;;;3.88;1.70;;;;;;;6.86;63.39;94038.78;4993159;28;20026;-68
2022/11/21 11:59:22;;;;;;;2.72;1.83;;;;;;;7.06;62.97;94041.34;5009851;28;20033;-69
2022/11/21 12:01:58;;;;;;;2.28;1.73;;;;;;;7.23;61.93;94037.31;5012579;28;20037;-70
2022/11/21 12:04:24;;;;;;;3.33;1.83;;;;;;;7.21;61.93;94030.72;4997288;28;20518;-69
2022/11/21 12:06:49;;;;;;;3.38;2.03;;;;;;;7.38;61.60;94040.34;5013240;28;20410;-69